Time;durP1;ratioP1;P1;durP2;ratioP2;P2;SDS_P1;SDS_P2;PMS_P1;PMS_P2;Temp;Humidity;BMP_temperature;BMP_pressure;BME280_temperature;BME280_humidity;BME280_pressure;Samples;Min_cycle;Max_cycle;Signal;HPM_P1;HPM_P2
2022/11/14 00:00:10;;;;;;;27.55;14.95;;;9.90;84.90;;;;;;5095852;28;20393;-13
2022/11/14 00:02:36;;;;;;;21.58;13.13;;;9.90;85.00;;;;;;5096277;28;20032;-13
2022/11/14 00:05:03;;;;;;;23.35;13.32;;;9.90;84.90;;;;;;5095577;28;20082;-13
2022/11/14 00:07:30;;;;;;;25.10;13.68;;;9.90;85.50;;;;;;5096201;28;20016;-14
2022/11/14 00:09:56;;;;;;;21.98;12.40;;;9.90;85.00;;;;;;5095832;28;20013;-13
2022/11/14 00:12:22;;;;;;;26.17;14.15;;;9.90;84.80;;;;;;5095889;28;20119;-14
2022/11/14 00:14:48;;;;;;;26.40;14.00;;;9.90;84.20;;;;;;5095351;28;20039;-14
2022/11/14 00:17:15;;;;;;;26.08;14.00;;;9.90;84.40;;;;;;5095554;28;20035;-13
2022/11/14 00:19:41;;;;;;;23.75;12.27;;;9.90;84.20;;;;;;5095833;28;20036;-15
2022/11/14 00:22:07;;;;;;;17.92;10.27;;;9.90;84.00;;;;;;5094252;28;20127;-14
2022/11/14 00:24:33;;;;;;;24.17;13.63;;;9.90;83.60;;;;;;5095839;28;20028;-13
2022/11/14 00:26:59;;;;;;;27.38;14.00;;;9.90;83.70;;;;;;5095806;28;20036;-14
2022/11/14 00:29:25;;;;;;;21.48;12.13;;;9.90;83.30;;;;;;5095927;28;20115;-13
2022/11/14 00:31:51;;;;;;;25.63;13.55;;;10.00;83.20;;;;;;5095459;28;20063;-13
2022/11/14 00:34:18;;;;;;;22.25;12.82;;;10.00;83.30;;;;;;5095368;28;20467;-14
2022/11/14 00:36:43;;;;;;;24.33;13.25;;;10.00;83.30;;;;;;5095464;28;20094;-13
2022/11/14 00:39:13;;;;;;;24.63;12.90;;;10.00;83.90;;;;;;5094997;28;20464;-14
2022/11/14 00:41:40;;;;;;;21.42;12.07;;;10.00;83.50;;;;;;5094698;28;20030;-13
2022/11/14 00:44:07;;;;;;;19.17;10.90;;;10.00;83.20;;;;;;5095100;28;20032;-13
2022/11/14 00:46:33;;;;;;;20.10;11.40;;;10.00;83.10;;;;;;5095364;28;20043;-13
2022/11/14 00:48:59;;;;;;;19.17;10.45;;;10.10;83.10;;;;;;5094880;28;20107;-12
2022/11/14 00:51:26;;;;;;;19.17;10.90;;;10.10;82.80;;;;;;5095232;28;20081;-13
2022/11/14 00:53:51;;;;;;;16.85;10.18;;;10.10;82.90;;;;;;5095155;28;20032;-13
2022/11/14 00:56:17;;;;;;;22.33;11.38;;;10.20;82.80;;;;;;5093857;28;20051;-14
2022/11/14 00:58:43;;;;;;;21.95;12.15;;;10.20;82.60;;;;;;5095036;28;20106;-14
2022/11/14 01:01:09;;;;;;;23.75;12.85;;;10.20;82.50;;;;;;5094881;28;20028;-14
2022/11/14 01:03:35;;;;;;;24.70;12.98;;;10.30;82.60;;;;;;5094627;28;20032;-13
2022/11/14 01:06:10;;;;;;;24.40;12.65;;;10.20;82.40;;;;;;5094665;28;20018;-13
2022/11/14 01:08:36;;;;;;;20.70;10.82;;;10.30;82.30;;;;;;5093397;28;20120;-14
2022/11/14 01:11:14;;;;;;;19.20;11.65;;;10.20;82.40;;;;;;5094446;28;20115;-14
2022/11/14 01:13:40;;;;;;;23.77;13.27;;;10.20;82.40;;;;;;5094674;28;20024;-13
2022/11/14 01:16:08;;;;;;;23.65;11.90;;;10.30;82.30;;;;;;5092966;28;20052;-14
2022/11/14 01:18:35;;;;;;;22.98;12.25;;;10.20;82.30;;;;;;5094448;28;20027;-14
2022/11/14 01:21:07;;;;;;;21.33;11.95;;;10.30;82.30;;;;;;5094211;28;20032;-14
2022/11/14 01:23:34;;;;;;;22.20;12.63;;;10.30;82.30;;;;;;5094403;28;20016;-13
2022/11/14 01:26:02;;;;;;;23.67;12.68;;;10.30;82.40;;;;;;5094113;28;20028;-14
2022/11/14 01:28:29;;;;;;;22.00;12.55;;;10.30;82.40;;;;;;5094474;28;20024;-14
2022/11/14 01:30:55;;;;;;;21.75;12.57;;;10.30;82.40;;;;;;5092766;28;20036;-14
2022/11/14 01:33:21;;;;;;;19.63;11.30;;;10.30;82.60;;;;;;5094093;28;20053;-14
2022/11/14 01:35:46;;;;;;;20.73;11.30;;;10.20;82.50;;;;;;5094328;28;20024;-13
2022/11/14 01:38:14;;;;;;;20.65;11.20;;;10.30;82.50;;;;;;5094394;28;20447;-14
2022/11/14 01:40:42;;;;;;;22.13;12.45;;;10.30;82.50;;;;;;5094069;28;20395;-14
2022/11/14 01:43:36;;;;;;;21.60;12.00;;;10.30;82.60;;;;;;5094325;28;20030;-14
2022/11/14 01:46:15;;;;;;;19.40;10.65;;;10.30;82.50;;;;;;5087904;28;20055;-15
2022/11/14 01:48:46;;;;;;;19.15;11.23;;;10.30;82.60;;;;;;5094054;28;20056;-14
2022/11/14 01:51:17;;;;;;;19.38;11.38;;;10.30;82.50;;;;;;5094271;28;20081;-14
2022/11/14 01:53:45;;;;;;;19.63;10.88;;;10.30;82.60;;;;;;5092970;28;20032;-14
2022/11/14 01:56:16;;;;;;;20.10;11.18;;;10.40;82.60;;;;;;5093662;28;20025;-14
2022/11/14 01:58:51;;;;;;;20.70;12.07;;;10.40;82.50;;;;;;5093826;28;20028;-14
2022/11/14 02:01:17;;;;;;;21.88;12.13;;;10.40;82.60;;;;;;5094076;28;20035;-14
2022/11/14 02:03:47;;;;;;;21.90;12.20;;;10.30;82.80;;;;;;5093505;28;20024;-13
2022/11/14 02:06:17;;;;;;;22.67;12.82;;;10.30;82.60;;;;;;5093730;28;20024;-11
2022/11/14 02:08:44;;;;;;;22.45;12.65;;;10.30;82.50;;;;;;5093555;28;20024;-12
2022/11/14 02:11:11;;;;;;;23.67;12.48;;;10.30;82.40;;;;;;5092143;28;20016;-12
2022/11/14 02:13:37;;;;;;;21.30;12.75;;;10.30;82.40;;;;;;5093780;28;20024;-13
2022/11/14 02:16:05;;;;;;;22.52;12.23;;;10.30;82.50;;;;;;5093266;28;20048;-12
2022/11/14 02:18:31;;;;;;;24.10;12.65;;;10.30;82.50;;;;;;5093641;28;20036;-12
2022/11/14 02:20:56;;;;;;;22.40;12.60;;;10.30;82.60;;;;;;5093062;28;20118;-12
2022/11/14 02:23:28;;;;;;;18.13;10.27;;;10.30;82.60;;;;;;5093337;28;20035;-12
2022/11/14 02:25:54;;;;;;;18.92;10.15;;;10.30;82.70;;;;;;5093339;28;20494;-13
2022/11/14 02:28:20;;;;;;;19.20;10.80;;;10.30;82.80;;;;;;5093316;28;20034;-12
2022/11/14 02:30:47;;;;;;;22.48;12.75;;;10.40;82.70;;;;;;5093234;28;20016;-13
2022/11/14 02:33:14;;;;;;;24.00;12.75;;;10.30;82.70;;;;;;5093778;28;20032;-13
2022/11/14 02:35:41;;;;;;;18.45;10.40;;;10.40;82.70;;;;;;5093113;28;20036;-12
2022/11/14 02:38:07;;;;;;;22.10;12.73;;;10.40;82.80;;;;;;5093149;28;20107;-13
2022/11/14 02:40:33;;;;;;;25.17;13.95;;;10.40;82.80;;;;;;5093189;28;20030;-12
2022/11/14 02:42:59;;;;;;;20.52;11.68;;;10.40;82.90;;;;;;5093550;28;20024;-12
2022/11/14 02:45:26;;;;;;;20.20;10.85;;;10.30;82.80;;;;;;5091940;28;20020;-13
2022/11/14 02:47:51;;;;;;;21.35;11.18;;;10.30;82.70;;;;;;5093390;28;20027;-13
2022/11/14 02:50:17;;;;;;;22.10;12.85;;;10.30;82.80;;;;;;5093041;28;20533;-12
2022/11/14 02:52:43;;;;;;;22.33;12.25;;;10.40;82.80;;;;;;5093163;28;20063;-12
2022/11/14 02:55:10;;;;;;;19.25;10.50;;;10.30;82.90;;;;;;5093066;28;20116;-12
2022/11/14 02:57:36;;;;;;;22.20;12.00;;;10.40;82.90;;;;;;5093213;28;20035;-12
2022/11/14 03:00:03;;;;;;;19.42;11.15;;;10.40;82.90;;;;;;5093241;28;20024;-13
2022/11/14 03:02:29;;;;;;;17.88;10.50;;;10.40;82.80;;;;;;5093280;28;20032;-13
2022/11/14 03:04:55;;;;;;;21.35;11.88;;;10.40;82.80;;;;;;5094275;28;20065;-12
2022/11/14 03:07:21;;;;;;;19.45;11.23;;;10.40;82.80;;;;;;5096999;28;20039;-12
2022/11/14 03:09:46;;;;;;;19.88;11.40;;;10.40;82.70;;;;;;5096898;28;20024;-13
2022/11/14 03:12:17;;;;;;;21.83;12.25;;;10.40;82.70;;;;;;5098015;28;20036;-13
2022/11/14 03:14:44;;;;;;;20.88;11.88;;;10.40;82.80;;;;;;5096864;28;20052;-11
2022/11/14 03:17:10;;;;;;;19.05;10.63;;;10.40;82.70;;;;;;5096665;28;20036;-13
2022/11/14 03:19:37;;;;;;;19.50;11.18;;;10.40;82.70;;;;;;5097557;28;20032;-13
2022/11/14 03:22:03;;;;;;;18.25;10.45;;;10.40;82.80;;;;;;5097074;28;20032;-12
2022/11/14 03:24:29;;;;;;;20.27;11.70;;;10.40;82.80;;;;;;5096703;28;20217;-12
2022/11/14 03:26:55;;;;;;;20.73;11.25;;;10.40;82.80;;;;;;5096708;28;20070;-12
2022/11/14 03:29:21;;;;;;;19.55;10.85;;;10.40;82.70;;;;;;5096586;28;20118;-13
2022/11/14 03:31:47;;;;;;;21.02;11.75;;;10.40;82.80;;;;;;5096810;28;20146;-12
2022/11/14 03:34:13;;;;;;;16.48;9.50;;;10.40;82.80;;;;;;5096363;28;20020;-12
2022/11/14 03:36:39;;;;;;;20.75;11.93;;;10.40;82.80;;;;;;5096469;28;20536;-12
2022/11/14 03:39:05;;;;;;;18.85;10.55;;;10.40;83.10;;;;;;5096493;28;20024;-12
2022/11/14 03:41:31;;;;;;;14.57;8.82;;;10.40;83.00;;;;;;5096261;28;20036;-12
2022/11/14 03:43:57;;;;;;;16.88;9.57;;;10.40;83.00;;;;;;5096625;28;20024;-13
2022/11/14 03:46:23;;;;;;;18.63;10.80;;;10.50;82.90;;;;;;5096446;28;20454;-12
2022/11/14 03:48:49;;;;;;;19.60;9.80;;;10.50;83.00;;;;;;5095951;28;20115;-12
2022/11/14 03:51:15;;;;;;;17.67;10.43;;;10.50;82.90;;;;;;5094923;28;20035;-13
2022/11/14 03:53:41;;;;;;;18.95;10.55;;;10.50;82.90;;;;;;5096015;28;20028;-13
2022/11/14 03:56:07;;;;;;;20.15;11.10;;;10.50;82.80;;;;;;5096247;28;20106;-13
2022/11/14 03:58:33;;;;;;;15.45;8.95;;;10.60;82.80;;;;;;5096288;28;20024;-12
2022/11/14 04:00:59;;;;;;;17.20;10.15;;;10.60;82.80;;;;;;5095734;28;20028;-13
2022/11/14 04:03:25;;;;;;;19.95;11.57;;;10.60;82.80;;;;;;5095781;28;20028;-12
2022/11/14 04:05:51;;;;;;;18.48;10.45;;;10.60;82.70;;;;;;5095806;28;20031;-13
2022/11/14 04:08:17;;;;;;;17.63;9.88;;;10.60;82.70;;;;;;5095862;28;20050;-12
2022/11/14 04:10:47;;;;;;;15.25;9.30;;;10.60;82.60;;;;;;5095801;28;20024;-13
2022/11/14 04:13:13;;;;;;;17.08;9.63;;;10.60;82.70;;;;;;5096203;28;20032;-12
2022/11/14 04:15:39;;;;;;;19.35;10.27;;;10.60;82.60;;;;;;5094679;28;20412;-13
2022/11/14 04:18:05;;;;;;;20.08;11.45;;;10.70;82.60;;;;;;5094132;28;20024;-13
2022/11/14 04:20:31;;;;;;;18.60;10.55;;;10.70;82.60;;;;;;5095494;28;20035;-12
2022/11/14 04:22:57;;;;;;;23.52;12.38;;;10.60;82.50;;;;;;5095689;28;20030;-12
2022/11/14 04:25:23;;;;;;;17.95;10.98;;;10.70;82.40;;;;;;5095845;28;20035;-12
2022/11/14 04:27:49;;;;;;;21.63;11.73;;;10.70;82.40;;;;;;5095632;28;20027;-12
2022/11/14 04:30:15;;;;;;;21.50;11.85;;;10.60;82.40;;;;;;5095501;28;20113;-12
2022/11/14 04:32:43;;;;;;;20.90;11.85;;;10.60;82.50;;;;;;5094119;28;20028;-12
2022/11/14 04:35:09;;;;;;;21.30;11.75;;;10.60;82.60;;;;;;5095051;28;20027;-13
2022/11/14 04:37:37;;;;;;;22.50;12.02;;;10.60;82.70;;;;;;5095536;28;20020;-13
2022/11/14 04:40:04;;;;;;;23.80;12.30;;;10.60;82.60;;;;;;5096093;28;20111;-13
2022/11/14 04:42:30;;;;;;;18.13;10.90;;;10.50;82.80;;;;;;5094201;28;20031;-11
2022/11/14 04:44:56;;;;;;;19.02;11.07;;;10.50;82.90;;;;;;5095070;28;20028;-12
2022/11/14 04:47:22;;;;;;;19.40;10.98;;;10.50;83.10;;;;;;5095030;28;20048;-12
2022/11/14 04:49:48;;;;;;;20.98;12.00;;;10.50;83.00;;;;;;5095173;28;20062;-12
2022/11/14 04:52:14;;;;;;;17.15;10.13;;;10.50;82.90;;;;;;5095825;28;20024;-12
2022/11/14 04:54:39;;;;;;;19.55;11.30;;;10.50;82.90;;;;;;5095594;28;20071;-11
2022/11/14 04:57:05;;;;;;;19.13;11.05;;;10.50;82.90;;;;;;5094813;28;20475;-12
2022/11/14 04:59:31;;;;;;;22.05;11.02;;;10.50;83.00;;;;;;5095031;28;20032;-13
2022/11/14 05:01:57;;;;;;;18.63;11.45;;;10.50;82.90;;;;;;5095099;28;20498;-13
2022/11/14 05:04:23;;;;;;;23.73;12.48;;;10.50;82.90;;;;;;5094882;28;20369;-12
2022/11/14 05:06:49;;;;;;;19.83;11.07;;;10.50;82.90;;;;;;5094672;28;20036;-12
2022/11/14 05:09:15;;;;;;;19.85;10.55;;;10.50;82.90;;;;;;5094915;28;20032;-13
2022/11/14 05:11:41;;;;;;;19.30;10.75;;;10.60;82.90;;;;;;5095101;28;20028;-13
2022/11/14 05:14:07;;;;;;;19.48;10.85;;;10.60;82.90;;;;;;5094852;28;20126;-12
2022/11/14 05:16:32;;;;;;;17.42;9.73;;;10.50;82.90;;;;;;5094268;28;20134;-13
2022/11/14 05:18:58;;;;;;;18.73;10.75;;;10.50;82.90;;;;;;5094328;28;20028;-13
2022/11/14 05:21:24;;;;;;;18.77;10.70;;;10.60;82.90;;;;;;5094422;28;20024;-14
2022/11/14 05:23:50;;;;;;;22.15;11.68;;;10.60;82.90;;;;;;5094486;28;20028;-13
2022/11/14 05:26:17;;;;;;;20.00;10.75;;;10.60;82.80;;;;;;5094328;28;20135;-12
2022/11/14 05:28:44;;;;;;;17.35;10.25;;;10.60;82.70;;;;;;5094152;28;20081;-12
2022/11/14 05:31:13;;;;;;;18.15;10.93;;;10.60;82.80;;;;;;5094116;28;20024;-12
2022/11/14 05:33:40;;;;;;;18.05;10.20;;;10.60;82.80;;;;;;5094116;28;20021;-13
2022/11/14 05:36:09;;;;;;;23.13;11.75;;;10.60;82.80;;;;;;5094041;28;20124;-13
2022/11/14 05:38:38;;;;;;;20.20;11.32;;;10.60;82.80;;;;;;5094389;28;20032;-13
2022/11/14 05:41:08;;;;;;;18.35;10.55;;;10.60;82.80;;;;;;5093848;28;20052;-12
2022/11/14 05:43:35;;;;;;;19.63;11.68;;;10.60;82.90;;;;;;5093921;28;20036;-13
2022/11/14 05:46:03;;;;;;;18.00;10.20;;;10.60;82.90;;;;;;5094047;28;20078;-12
2022/11/14 05:48:30;;;;;;;15.82;9.20;;;10.60;82.90;;;;;;5093949;28;20449;-12
2022/11/14 05:50:59;;;;;;;17.88;10.35;;;10.60;82.90;;;;;;5094167;28;20035;-13
2022/11/14 05:53:27;;;;;;;17.00;10.27;;;10.60;82.80;;;;;;5093884;28;20027;-13
2022/11/14 05:55:54;;;;;;;16.20;9.75;;;10.70;82.90;;;;;;5094065;28;20032;-13
2022/11/14 05:58:21;;;;;;;18.65;9.57;;;10.70;82.80;;;;;;5093803;28;20028;-12
2022/11/14 06:00:47;;;;;;;19.17;10.32;;;10.60;82.80;;;;;;5093662;28;20020;-14
2022/11/14 06:03:13;;;;;;;14.15;8.50;;;10.60;83.00;;;;;;5093835;28;20040;-12
2022/11/14 06:05:40;;;;;;;15.35;9.38;;;10.60;83.00;;;;;;5093850;28;20028;-12
2022/11/14 06:08:06;;;;;;;14.45;8.88;;;10.60;83.00;;;;;;5093620;28;20020;-12
2022/11/14 06:10:34;;;;;;;18.25;10.63;;;10.60;83.00;;;;;;5094144;28;20027;-12
2022/11/14 06:13:01;;;;;;;19.17;10.80;;;10.60;83.10;;;;;;5093283;28;20020;-12
2022/11/14 06:15:27;;;;;;;17.88;10.55;;;10.70;82.90;;;;;;5093258;28;20048;-12
2022/11/14 06:17:54;;;;;;;18.85;11.02;;;10.70;83.00;;;;;;5094044;28;20063;-13
2022/11/14 06:20:20;;;;;;;14.88;9.25;;;10.70;83.10;;;;;;5093354;28;20054;-11
2022/11/14 06:22:46;;;;;;;14.30;7.82;;;10.70;83.00;;;;;;5093703;28;20086;-13
2022/11/14 06:25:12;;;;;;;14.90;9.30;;;10.70;82.90;;;;;;5093610;28;20067;-13
2022/11/14 06:27:38;;;;;;;18.35;10.20;;;10.70;83.00;;;;;;5093656;28;20426;-12
2022/11/14 06:30:05;;;;;;;16.83;9.43;;;10.70;83.00;;;;;;5093952;28;20536;-12
2022/11/14 06:32:31;;;;;;;16.98;9.40;;;10.70;83.00;;;;;;5093349;28;20043;-12
2022/11/14 06:34:57;;;;;;;15.85;8.80;;;10.80;83.00;;;;;;5093228;28;20032;-12
2022/11/14 06:37:23;;;;;;;14.65;8.23;;;10.80;83.00;;;;;;5093411;28;20442;-13
2022/11/14 06:39:48;;;;;;;16.70;9.00;;;10.80;83.00;;;;;;5092788;28;20062;-13
2022/11/14 06:42:15;;;;;;;18.55;9.93;;;10.80;83.00;;;;;;5093265;28;20032;-12
2022/11/14 06:44:41;;;;;;;19.27;10.45;;;10.90;82.90;;;;;;5093157;28;20479;-12
2022/11/14 06:47:07;;;;;;;16.58;9.63;;;10.90;82.80;;;;;;5092970;28;20096;-13
2022/11/14 06:49:33;;;;;;;16.25;9.98;;;10.90;82.80;;;;;;5093240;28;20028;-13
2022/11/14 06:51:59;;;;;;;18.92;10.30;;;10.90;82.70;;;;;;5091823;28;20031;-13
2022/11/14 06:54:25;;;;;;;17.70;10.00;;;10.90;82.70;;;;;;5093388;28;20020;-13
2022/11/14 06:56:51;;;;;;;17.02;10.32;;;10.90;82.60;;;;;;5093175;28;20032;-13
2022/11/14 06:59:17;;;;;;;15.38;9.60;;;10.90;82.60;;;;;;5092946;28;20028;-12
2022/11/14 07:01:43;;;;;;;18.05;9.77;;;10.90;82.50;;;;;;5093206;28;20031;-13
2022/11/14 07:04:09;;;;;;;17.13;9.93;;;10.90;82.50;;;;;;5092914;28;20028;-12
2022/11/14 07:06:35;;;;;;;17.98;10.60;;;11.00;82.50;;;;;;5093209;28;20032;-12
2022/11/14 07:09:01;;;;;;;18.45;10.43;;;11.00;82.40;;;;;;5091469;28;20214;-12
2022/11/14 07:11:28;;;;;;;15.38;9.18;;;11.00;82.40;;;;;;5092887;28;20028;-13
2022/11/14 07:13:57;;;;;;;17.85;10.57;;;11.00;82.40;;;;;;5092893;28;20020;-12
2022/11/14 07:16:28;;;;;;;16.00;9.68;;;11.00;82.40;;;;;;5092740;28;20040;-12
2022/11/14 07:18:55;;;;;;;15.80;8.98;;;11.00;82.30;;;;;;5092522;28;20028;-13
2022/11/14 07:21:21;;;;;;;19.48;9.98;;;11.00;82.40;;;;;;5092914;28;20560;-13
2022/11/14 07:23:47;;;;;;;14.88;8.13;;;11.10;82.40;;;;;;5093434;28;20020;-12
2022/11/14 07:26:13;;;;;;;13.38;8.18;;;11.20;82.40;;;;;;5092660;28;20379;-12
2022/11/14 07:28:41;;;;;;;16.42;9.82;;;11.20;82.30;;;;;;5093410;28;20062;-13
2022/11/14 07:31:11;;;;;;;15.82;9.23;;;11.20;82.50;;;;;;5092774;28;20028;-11
2022/11/14 07:33:37;;;;;;;16.15;10.43;;;11.30;82.40;;;;;;5093024;28;20028;-13
2022/11/14 07:36:05;;;;;;;21.80;14.95;;;11.40;82.40;;;;;;5092481;28;20052;-13
2022/11/14 07:38:32;;;;;;;18.35;11.90;;;11.40;82.20;;;;;;5092836;28;20031;-13
2022/11/14 07:41:11;;;;;;;19.15;11.25;;;11.50;82.10;;;;;;5092527;28;20026;-12
2022/11/14 07:43:37;;;;;;;15.98;10.65;;;11.60;81.90;;;;;;5093323;28;20020;-12
2022/11/14 07:46:06;;;;;;;17.13;10.55;;;11.70;81.80;;;;;;5092807;28;20496;-12
2022/11/14 07:48:33;;;;;;;15.88;9.70;;;11.80;81.80;;;;;;5093328;28;20031;-12
2022/11/14 07:51:00;;;;;;;18.05;9.90;;;11.80;81.60;;;;;;5092423;28;20425;-12
2022/11/14 07:53:27;;;;;;;19.00;10.18;;;11.90;81.60;;;;;;5096055;28;20060;-12
2022/11/14 07:55:53;;;;;;;15.57;9.35;;;11.90;81.40;;;;;;5096018;28;20119;-11
2022/11/14 07:58:19;;;;;;;12.85;8.27;;;12.00;81.50;;;;;;5096415;28;20047;-13
2022/11/14 08:00:45;;;;;;;13.48;7.57;;;12.10;81.30;;;;;;5096049;28;20395;-12
2022/11/14 08:03:11;;;;;;;17.25;9.80;;;12.20;81.30;;;;;;5096063;28;20075;-12
2022/11/14 08:05:37;;;;;;;17.10;9.95;;;12.20;81.00;;;;;;5095907;28;20059;-13
2022/11/14 08:08:04;;;;;;;16.73;9.30;;;12.20;81.30;;;;;;5096194;28;20479;-12
2022/11/14 08:10:30;;;;;;;16.20;9.50;;;12.20;81.20;;;;;;5096077;28;20055;-13
2022/11/14 08:13:05;;;;;;;14.77;7.85;;;12.20;81.20;;;;;;5095623;28;20387;-12
2022/11/14 08:15:31;;;;;;;15.30;8.50;;;12.30;81.00;;;;;;5095546;28;20055;-11
2022/11/14 08:17:59;;;;;;;17.17;9.27;;;12.40;81.20;;;;;;5096214;28;20031;-13
2022/11/14 08:20:25;;;;;;;14.98;8.80;;;12.40;81.10;;;;;;5095827;28;20502;-12
2022/11/14 08:22:52;;;;;;;16.23;9.00;;;12.50;80.90;;;;;;5095469;28;20031;-13
2022/11/14 08:25:18;;;;;;;17.10;9.07;;;12.60;80.80;;;;;;5095515;28;20024;-12
2022/11/14 08:27:44;;;;;;;14.85;8.75;;;12.60;80.40;;;;;;5096311;28;20035;-11
2022/11/14 08:30:11;;;;;;;12.05;7.38;;;12.60;79.80;;;;;;5094171;28;20031;-12
2022/11/14 08:32:37;;;;;;;13.45;7.68;;;12.70;79.80;;;;;;5095707;28;20028;-13
2022/11/14 08:35:03;;;;;;;13.27;7.65;;;12.70;79.30;;;;;;5095042;28;20436;-12
2022/11/14 08:37:29;;;;;;;11.98;7.20;;;12.80;79.70;;;;;;5095284;28;20543;-13
2022/11/14 08:39:55;;;;;;;11.63;6.30;;;12.80;79.60;;;;;;5095141;28;20522;-12
2022/11/14 08:42:21;;;;;;;12.40;6.47;;;12.90;78.80;;;;;;5095203;28;20032;-12
2022/11/14 08:44:47;;;;;;;12.55;6.30;;;12.90;79.20;;;;;;5095286;28;20021;-11
2022/11/14 08:47:13;;;;;;;11.57;6.07;;;13.10;79.10;;;;;;5093950;28;20065;-13
2022/11/14 08:49:39;;;;;;;11.05;5.85;;;13.40;78.80;;;;;;5095244;28;20020;-11
2022/11/14 08:52:04;;;;;;;9.10;5.50;;;13.80;77.40;;;;;;5095035;28;20028;-11
2022/11/14 08:54:30;;;;;;;10.15;5.50;;;14.20;75.40;;;;;;5095231;28;20058;-13
2022/11/14 08:56:56;;;;;;;8.52;5.20;;;14.40;75.60;;;;;;5095023;28;20387;-13
2022/11/14 08:59:22;;;;;;;10.15;4.72;;;14.40;72.40;;;;;;5094892;28;20436;-12
2022/11/14 09:01:48;;;;;;;7.88;4.63;;;14.30;72.40;;;;;;5093296;28;20028;-13
2022/11/14 09:04:14;;;;;;;10.63;4.90;;;14.20;72.50;;;;;;5094590;28;20059;-11
2022/11/14 09:06:39;;;;;;;7.43;4.40;;;14.20;73.30;;;;;;5094726;28;20032;-12
2022/11/14 09:09:05;;;;;;;8.38;4.40;;;14.10;74.10;;;;;;5094462;28;20016;-12
2022/11/14 09:11:31;;;;;;;8.88;4.72;;;14.00;73.80;;;;;;5094615;28;20028;-12
2022/11/14 09:13:57;;;;;;;8.07;4.22;;;13.90;73.20;;;;;;5094802;28;20031;-12
2022/11/14 09:16:23;;;;;;;7.55;4.18;;;13.70;74.00;;;;;;5094251;28;20156;-12
2022/11/14 09:18:49;;;;;;;8.07;4.72;;;13.70;74.30;;;;;;5094474;28;20116;-12
2022/11/14 09:21:15;;;;;;;8.45;4.32;;;13.60;74.40;;;;;;5094631;28;20496;-12
2022/11/14 09:23:40;;;;;;;9.13;4.88;;;13.60;74.80;;;;;;5095043;28;20024;-12
2022/11/14 09:26:09;;;;;;;7.72;4.68;;;13.60;75.00;;;;;;5094339;28;20020;-13
2022/11/14 09:28:35;;;;;;;12.25;4.97;;;13.50;75.00;;;;;;5094281;28;20056;-11
2022/11/14 09:31:07;;;;;;;9.75;4.88;;;13.60;75.30;;;;;;5094025;28;20032;-12
2022/11/14 09:33:33;;;;;;;8.10;4.90;;;13.60;75.70;;;;;;5094554;28;20035;-11
2022/11/14 09:36:02;;;;;;;9.77;5.32;;;13.70;74.80;;;;;;5094096;28;20036;-12
2022/11/14 09:38:29;;;;;;;7.68;4.30;;;13.70;75.10;;;;;;5094133;28;20133;-12
2022/11/14 09:41:23;;;;;;;7.78;4.70;;;13.80;75.10;;;;;;5094197;28;20035;-13
2022/11/14 09:43:58;;;;;;;8.38;4.53;;;13.90;75.10;;;;;;5094348;28;20115;-12
2022/11/14 09:46:42;;;;;;;7.63;4.57;;;14.00;74.70;;;;;;5093988;28;20043;-12
2022/11/14 09:49:41;;;;;;;7.80;4.65;;;14.10;74.80;;;;;;5093857;28;20486;-13
2022/11/14 09:52:30;;;;;;;8.65;4.78;;;14.10;75.10;;;;;;5093910;28;20399;-13
2022/11/14 09:54:58;;;;;;;9.15;4.43;;;14.10;75.50;;;;;;5093963;28;20020;-12
2022/11/14 09:57:25;;;;;;;8.20;4.55;;;14.00;75.20;;;;;;5093945;28;20021;-12
2022/11/14 09:59:51;;;;;;;9.38;4.75;;;14.00;75.80;;;;;;5094060;28;20490;-12
2022/11/14 10:02:40;;;;;;;9.32;4.97;;;14.00;75.80;;;;;;5094074;28;20024;-13
2022/11/14 10:05:43;;;;;;;9.40;5.07;;;14.00;75.90;;;;;;5093423;28;20482;-12
2022/11/14 10:08:24;;;;;;;8.20;4.68;;;14.00;76.00;;;;;;5093777;28;20042;-13
2022/11/14 10:11:11;;;;;;;8.38;4.55;;;14.00;75.70;;;;;;5093463;28;20064;-13
2022/11/14 10:13:42;;;;;;;8.27;5.10;;;14.00;75.70;;;;;;5093378;28;20024;-12
2022/11/14 10:16:18;;;;;;;6.63;4.00;;;14.10;76.00;;;;;;5093111;28;20515;-12
2022/11/14 10:18:57;;;;;;;9.20;5.38;;;14.20;75.90;;;;;;5093420;28;20491;-12
2022/11/14 10:21:29;;;;;;;9.65;5.65;;;14.30;76.00;;;;;;5093504;28;20034;-13
2022/11/14 10:23:55;;;;;;;7.45;4.32;;;14.40;75.50;;;;;;5093374;28;20036;-13
2022/11/14 10:26:29;;;;;;;8.88;5.10;;;14.40;75.60;;;;;;5092124;28;20134;-12
2022/11/14 10:29:28;;;;;;;8.88;5.22;;;14.40;75.40;;;;;;5093206;28;20013;-12
2022/11/14 10:32:17;;;;;;;9.88;5.38;;;14.40;74.20;;;;;;5093312;28;20035;-12
2022/11/14 10:35:01;;;;;;;9.18;5.30;;;14.50;74.60;;;;;;5093583;28;20029;-12
2022/11/14 10:37:47;;;;;;;9.68;5.07;;;14.60;74.80;;;;;;5093213;28;20071;-12
2022/11/14 10:40:24;;;;;;;9.95;4.72;;;14.70;74.20;;;;;;5082588;28;20481;-12
2022/11/14 10:43:02;;;;;;;10.38;5.32;;;14.70;73.80;;;;;;5092992;28;20035;-12
2022/11/14 10:45:45;;;;;;;9.18;4.85;;;14.80;73.90;;;;;;5093207;28;20020;-12
2022/11/14 10:48:19;;;;;;;7.38;4.80;;;14.80;73.70;;;;;;5093562;28;20446;-13
2022/11/14 10:50:54;;;;;;;8.13;4.60;;;14.90;73.70;;;;;;5093102;28;20501;-11
2022/11/14 10:53:26;;;;;;;8.35;5.00;;;14.90;72.40;;;;;;5093487;28;20093;-13
2022/11/14 10:55:54;;;;;;;7.28;4.70;;;14.90;73.10;;;;;;5093276;28;20032;-11
2022/11/14 10:58:21;;;;;;;8.27;4.72;;;14.90;72.70;;;;;;5093041;28;20422;-12
2022/11/14 11:00:47;;;;;;;8.05;4.80;;;15.00;72.10;;;;;;5092821;28;20051;-11
2022/11/14 11:03:13;;;;;;;7.50;4.45;;;14.90;72.30;;;;;;5092905;28;20020;-12
2022/11/14 11:05:58;;;;;;;6.70;4.20;;;15.00;72.40;;;;;;5092900;28;20106;-12
2022/11/14 11:11:30;;;;;;;;;;;15.20;72.30;;;;;;5093527;28;20054;-12
2022/11/14 11:13:59;;;;;;;8.02;4.05;;;15.30;72.20;;;;;;5093019;28;19904;-12
2022/11/14 11:16:27;;;;;;;9.13;4.95;;;15.30;71.70;;;;;;5092652;28;20058;-12
2022/11/14 11:19:13;;;;;;;6.72;4.32;;;15.30;71.50;;;;;;5092725;28;20027;-13
2022/11/14 11:21:48;;;;;;;11.68;4.70;;;15.30;71.40;;;;;;5093289;28;20063;-13
2022/11/14 11:24:34;;;;;;;6.55;4.10;;;15.30;71.90;;;;;;5092778;28;20434;-12
2022/11/14 11:27:24;;;;;;;8.60;4.47;;;15.40;72.00;;;;;;5095955;28;20020;-12
2022/11/14 11:30:06;;;;;;;8.82;4.60;;;15.50;71.90;;;;;;5096659;28;20028;-12
2022/11/14 11:32:32;;;;;;;9.15;4.57;;;15.70;71.70;;;;;;5097062;28;20036;-12
2022/11/14 11:35:02;;;;;;;5.70;3.67;;;15.70;71.80;;;;;;5096339;28;20503;-13
2022/11/14 11:37:53;;;;;;;6.55;3.90;;;15.80;71.30;;;;;;5096390;28;20444;-12
2022/11/14 11:40:23;;;;;;;7.20;4.03;;;15.80;71.60;;;;;;5097349;28;20028;-12
2022/11/14 11:42:59;;;;;;;9.55;4.15;;;15.90;71.50;;;;;;5097301;28;20070;-14
2022/11/14 11:45:26;;;;;;;6.07;4.03;;;16.00;71.40;;;;;;5096414;28;20103;-12
2022/11/14 11:47:56;;;;;;;8.85;4.93;;;16.10;71.40;;;;;;5096256;28;20047;-12
2022/11/14 11:50:23;;;;;;;6.53;3.65;;;16.20;71.00;;;;;;5096250;28;20030;-12
2022/11/14 11:53:13;;;;;;;5.80;3.65;;;16.20;71.00;;;;;;5096046;28;20021;-12
2022/11/14 11:55:50;;;;;;;8.27;4.93;;;16.30;71.00;;;;;;5096635;28;20094;-12
2022/11/14 11:58:27;;;;;;;8.10;4.15;;;16.30;70.70;;;;;;5096620;28;20119;-13
2022/11/14 12:00:56;;;;;;;7.60;4.18;;;16.40;70.20;;;;;;5095840;28;20475;-14
2022/11/14 12:03:24;;;;;;;6.82;4.40;;;16.40;70.00;;;;;;5096021;28;20032;-13
2022/11/14 12:06:05;;;;;;;8.90;4.65;;;16.40;69.50;;;;;;5096523;28;20024;-12
2022/11/14 12:08:51;;;;;;;8.45;4.75;;;16.40;70.00;;;;;;5096251;28;20128;-13
2022/11/14 12:11:21;;;;;;;6.15;4.55;;;16.40;68.60;;;;;;5085239;28;20020;-12
2022/11/14 12:13:49;;;;;;;9.07;3.97;;;16.30;69.50;;;;;;5095998;28;20024;-12
2022/11/14 12:16:26;;;;;;;10.20;6.00;;;16.40;70.00;;;;;;5095614;28;20051;-12
2022/11/14 12:19:36;;;;;;;7.63;4.60;;;16.40;70.00;;;;;;5095671;28;20111;-12
2022/11/14 12:22:08;;;;;;;9.63;5.05;;;16.40;69.90;;;;;;5079835;28;20039;-12
2022/11/14 12:24:46;;;;;;;5.97;4.10;;;16.30;69.70;;;;;;5096198;28;20054;-14
2022/11/14 12:27:30;;;;;;;7.32;4.53;;;16.20;69.80;;;;;;5095932;28;20036;-13
2022/11/14 12:30:14;;;;;;;7.57;4.40;;;16.10;69.60;;;;;;5095869;28;20055;-12
2022/11/14 12:32:46;;;;;;;;;;;16.10;70.00;;;;;;5095895;28;20024;-13
2022/11/14 12:35:29;;;;;;;7.25;4.50;;;16.00;68.70;;;;;;5095332;28;19907;-12
2022/11/14 12:37:57;;;;;;;7.60;4.38;;;15.90;69.90;;;;;;5094459;28;20552;-12
2022/11/14 12:40:33;;;;;;;7.75;4.55;;;15.90;70.00;;;;;;5095299;28;20016;-12
2022/11/14 12:43:01;;;;;;;6.75;4.10;;;15.90;70.30;;;;;;5095448;28;20030;-12
2022/11/14 12:45:39;;;;;;;7.10;4.07;;;16.00;70.50;;;;;;5095287;28;20017;-13
2022/11/14 12:48:27;;;;;;;6.78;4.60;;;16.00;70.50;;;;;;5095460;28;20028;-12